Time;durP1;ratioP1;P1;durP2;ratioP2;P2;SDS_P1;SDS_P2;PMS_P1;PMS_P2;Temp;Humidity;BMP_temperature;BMP_pressure;BME280_temperature;BME280_humidity;BME280_pressure;Samples;Min_cycle;Max_cycle;Signal;HPM_P1;HPM_P2
2021/08/12 06:10:19;;;;;;;7.72;6.20;;;;;;;;;;12969343;23;20222;-86
2021/08/12 06:15:21;;;;;;;7.72;6.25;;;;;;;;;;12911091;23;20031;-85
2021/08/12 06:20:28;;;;;;;8.57;7.68;;;;;;;;;;12927524;23;20083;-86
2021/08/12 06:25:35;;;;;;;9.07;7.78;;;;;;;;;;12927704;23;20344;-86
2021/08/12 06:30:46;;;;;;;7.20;6.00;;;;;;;;;;12927027;23;20448;-86
2021/08/12 06:35:51;;;;;;;7.70;6.53;;;;;;;;;;12933792;22;19996;-86
2021/08/12 06:40:55;;;;;;;8.98;7.72;;;;;;;;;;12901954;23;20012;-86
2021/08/12 06:45:58;;;;;;;9.05;7.10;;;;;;;;;;12927115;23;20039;-86
2021/08/12 06:51:36;;;;;;;7.85;5.95;;;;;;;;;;12901930;23;20077;-86
2021/08/12 06:56:31;;;;;;;8.20;6.97;;;;;;;;;;12947725;23;20014;-84
2021/08/12 07:01:33;;;;;;;13.13;8.05;;;;;;;;;;12950674;23;20026;-85
2021/08/12 07:06:39;;;;;;;8.20;6.28;;;;;;;;;;12922925;22;20016;-85
2021/08/12 07:11:39;;;;;;;6.50;5.47;;;;;;;;;;12915377;23;20098;-85
2021/08/12 07:16:40;;;;;;;10.55;8.48;;;;;;;;;;12922817;23;19996;-85
2021/08/12 07:21:41;;;;;;;9.93;6.85;;;;;;;;;;12917744;23;20039;-86
2021/08/12 07:26:47;;;;;;;7.90;6.25;;;;;;;;;;12939452;23;20000;-82
2021/08/12 07:31:48;;;;;;;9.80;7.38;;;;;;;;;;12910906;23;20011;-86
2021/08/12 07:36:59;;;;;;;7.50;6.65;;;;;;;;;;12943292;23;20066;-85
2021/08/12 07:42:00;;;;;;;8.38;6.50;;;;;;;;;;12915755;23;20016;-85
2021/08/12 07:47:01;;;;;;;10.48;7.80;;;;;;;;;;12918633;23;20011;-85
2021/08/12 07:52:06;;;;;;;9.00;6.88;;;;;;;;;;12920056;23;20007;-86
2021/08/12 07:57:07;;;;;;;12.80;8.75;;;;;;;;;;12917397;23;20004;-86
2021/08/12 08:02:10;;;;;;;10.35;8.80;;;;;;;;;;12944217;23;20005;-86
2021/08/12 08:07:36;;;;;;;8.35;6.78;;;;;;;;;;12941512;23;20463;-86
2021/08/12 08:12:42;;;;;;;8.02;6.80;;;;;;;;;;12934862;23;20015;-86
2021/08/12 08:17:43;;;;;;;12.02;7.72;;;;;;;;;;12915252;23;20083;-86
2021/08/12 08:22:44;;;;;;;9.60;6.82;;;;;;;;;;12942272;23;20142;-85
2021/08/12 08:27:45;;;;;;;8.10;6.13;;;;;;;;;;12915586;23;20091;-87
2021/08/12 08:32:46;;;;;;;9.50;7.10;;;;;;;;;;12909074;23;20333;-81
2021/08/12 08:37:47;;;;;;;8.32;6.28;;;;;;;;;;12908375;23;20065;-82
2021/08/12 08:42:49;;;;;;;12.02;8.25;;;;;;;;;;12935815;23;19996;-81
2021/08/12 08:47:51;;;;;;;8.02;6.53;;;;;;;;;;12908097;23;20134;-82
2021/08/12 08:52:53;;;;;;;9.45;6.28;;;;;;;;;;12906031;23;20015;-82
2021/08/12 08:57:57;;;;;;;8.57;6.50;;;;;;;;;;12913584;23;20393;-86
2021/08/12 09:02:58;;;;;;;8.57;5.72;;;;;;;;;;12913612;23;20035;-85
2021/08/12 09:08:00;;;;;;;7.15;5.60;;;;;;;;;;12938529;23;20019;-85
2021/08/12 09:13:01;;;;;;;7.55;6.20;;;;;;;;;;12909497;23;20054;-85
2021/08/12 09:18:02;;;;;;;8.40;6.03;;;;;;;;;;12921557;22;20008;-85
2021/08/12 09:23:07;;;;;;;7.43;6.50;;;;;;;;;;12913705;23;20341;-85
2021/08/12 09:28:15;;;;;;;8.32;6.50;;;;;;;;;;12914075;23;20046;-87
2021/08/12 09:33:19;;;;;;;11.63;7.88;;;;;;;;;;12941586;23;20091;-86
2021/08/12 09:38:21;;;;;;;8.95;6.15;;;;;;;;;;12913235;23;20345;-85
2021/08/12 09:43:23;;;;;;;10.73;7.25;;;;;;;;;;12940560;23;20004;-86
2021/08/12 09:48:24;;;;;;;9.13;6.22;;;;;;;;;;12915661;23;20440;-86
2021/08/12 09:53:25;;;;;;;7.22;5.80;;;;;;;;;;12913175;23;20441;-82
2021/08/12 09:58:33;;;;;;;8.85;5.55;;;;;;;;;;12910298;23;20034;-84
2021/08/12 10:03:37;;;;;;;9.13;7.10;;;;;;;;;;12911285;23;20008;-82
2021/08/12 10:08:39;;;;;;;13.80;7.97;;;;;;;;;;12923406;23;20008;-83
2021/08/12 10:13:40;;;;;;;9.90;6.85;;;;;;;;;;12944810;23;20000;-86
2021/08/12 10:18:42;;;;;;;11.02;7.30;;;;;;;;;;12908953;23;20409;-86
2021/08/12 10:23:47;;;;;;;9.57;6.55;;;;;;;;;;12912228;23;20000;-86
2021/08/12 10:28:50;;;;;;;9.68;6.18;;;;;;;;;;12913350;23;20011;-86
2021/08/12 10:33:52;;;;;;;9.18;5.88;;;;;;;;;;12938876;23;20273;-86
2021/08/12 10:38:53;;;;;;;9.07;5.32;;;;;;;;;;12917453;23;20015;-86
2021/08/12 10:43:55;;;;;;;9.15;5.28;;;;;;;;;;12940068;23;20006;-82
2021/08/12 10:49:16;;;;;;;7.22;5.90;;;;;;;;;;12911578;23;20334;-85
2021/08/12 10:54:18;;;;;;;9.00;5.22;;;;;;;;;;12910194;23;20000;-85
2021/08/12 10:59:33;;;;;;;8.43;4.65;;;;;;;;;;12908104;23;20008;-83
2021/08/12 11:04:50;;;;;;;7.72;5.18;;;;;;;;;;12932666;23;20473;-86
2021/08/12 11:09:57;;;;;;;6.40;4.28;;;;;;;;;;12913548;23;20480;-85
2021/08/12 11:14:58;;;;;;;7.68;5.28;;;;;;;;;;12938900;23;20004;-86
2021/08/12 11:19:59;;;;;;;6.88;5.35;;;;;;;;;;12910959;23;20008;-82
2021/08/12 11:25:01;;;;;;;13.77;9.73;;;;;;;;;;12913957;23;20066;-82
2021/08/12 11:30:21;;;;;;;11.38;5.25;;;;;;;;;;12910064;23;20093;-81
2021/08/12 11:35:22;;;;;;;6.78;5.40;;;;;;;;;;12910424;23;20031;-82
2021/08/12 11:40:27;;;;;;;6.75;4.50;;;;;;;;;;12907851;23;20091;-86
2021/08/12 11:45:31;;;;;;;6.30;4.47;;;;;;;;;;12942628;23;20354;-86
2021/08/12 11:50:31;;;;;;;6.28;4.30;;;;;;;;;;12919048;22;20004;-85
2021/08/12 11:55:36;;;;;;;7.47;4.93;;;;;;;;;;12908475;23;20011;-85
2021/08/12 12:00:37;;;;;;;6.70;4.07;;;;;;;;;;12935604;23;20365;-80
2021/08/12 12:05:41;;;;;;;9.15;4.60;;;;;;;;;;12914824;23;20012;-85
2021/08/12 12:10:49;;;;;;;7.18;4.63;;;;;;;;;;12944592;23;20008;-84
2021/08/12 12:16:11;;;;;;;7.65;4.50;;;;;;;;;;12934897;23;20080;-85
2021/08/12 12:21:13;;;;;;;6.55;4.93;;;;;;;;;;12915355;23;20015;-86
2021/08/12 12:26:18;;;;;;;8.48;5.55;;;;;;;;;;12916732;23;20015;-84
2021/08/12 12:31:20;;;;;;;9.15;6.28;;;;;;;;;;12915760;23;20327;-84
2021/08/12 12:36:21;;;;;;;6.57;5.25;;;;;;;;;;12916297;23;20008;-84
2021/08/12 12:41:23;;;;;;;7.35;4.65;;;;;;;;;;12916488;23;20376;-85
2021/08/12 12:46:33;;;;;;;6.85;4.53;;;;;;;;;;12959915;23;19996;-85
2021/08/12 12:51:36;;;;;;;5.25;4.30;;;;;;;;;;12913338;23;20015;-84
2021/08/12 12:56:58;;;;;;;4.85;4.10;;;;;;;;;;12930772;23;20008;-85
2021/08/12 13:02:00;;;;;;;5.90;4.50;;;;;;;;;;12926204;23;20023;-84
2021/08/12 13:07:20;;;;;;;7.10;5.57;;;;;;;;;;12911023;23;20551;-85
2021/08/12 13:12:53;;;;;;;8.97;6.33;;;;;;;;;;12847488;23;20078;-84
2021/08/12 13:17:55;;;;;;;5.10;4.30;;;;;;;;;;12885155;23;20016;-84
2021/08/12 13:23:26;;;;;;;6.63;4.43;;;;;;;;;;12888124;23;20040;-85
2021/08/12 13:28:34;;;;;;;7.70;4.72;;;;;;;;;;12875385;23;20394;-84
2021/08/12 13:33:35;;;;;;;6.47;4.47;;;;;;;;;;12855569;23;20049;-85
2021/08/12 13:39:01;;;;;;;8.02;5.03;;;;;;;;;;12793081;23;20018;-82
2021/08/12 14:24:23;;;;;;;8.40;5.57;;;;;;;;;;12645979;23;20022;-84
2021/08/12 15:21:04;;;;;;;9.90;7.15;;;;;;;;;;12699911;23;20021;-86
